AAL1189 KPHL-KBOS
Flight info
| Callsign | AAL1189 |
|---|---|
| Flight time | N/A |
| Altitude | 23000 |
| Route | DITCH LUIGI HNNAH Q450 JFK ROBUC3 |
| Aircraft | A320/M-SDE3FGHIRWY/LB1 |
Departure
| Time | N/A |
|---|---|
| Airport | Philadelphia International Airport (KPHL) |
Arrival
| Time | 2026-05-05 17:42 |
|---|---|
| Airport | Boston Logan International Airport (KBOS) |
| Time | Latitude | Longitude | Altitude | Speed | Heading |
|---|---|---|---|---|---|
| 2026-05-05 17:33 | 42.59192 | -70.78918 | 9334 ft | 283 kts | 14° |
| 2026-05-05 17:34 | 42.61030 | -70.77995 | 8557 ft | 281 kts | 14° |
| 2026-05-05 17:34 | 42.62865 | -70.77137 | 7774 ft | 273 kts | 3° |
| 2026-05-05 17:34 | 42.64661 | -70.77212 | 7048 ft | 248 kts | 333° |
| 2026-05-05 17:34 | 42.66079 | -70.78305 | 6373 ft | 223 kts | 305° |
| 2026-05-05 17:35 | 42.66926 | -70.79873 | 6133 ft | 192 kts | 285° |
| 2026-05-05 17:35 | 42.67259 | -70.81500 | 6077 ft | 171 kts | 268° |
| 2026-05-05 17:35 | 42.67174 | -70.83193 | 6033 ft | 195 kts | 252° |
| 2026-05-05 17:35 | 42.66611 | -70.84896 | 5920 ft | 201 kts | 235° |
| 2026-05-05 17:36 | 42.65607 | -70.86218 | 5721 ft | 204 kts | 216° |
| 2026-05-05 17:36 | 42.64298 | -70.86993 | 5480 ft | 207 kts | 206° |
| 2026-05-05 17:36 | 42.62942 | -70.87650 | 5218 ft | 206 kts | 206° |
| 2026-05-05 17:36 | 42.61587 | -70.88310 | 4969 ft | 208 kts | 205° |
| 2026-05-05 17:37 | 42.60224 | -70.88974 | 4678 ft | 208 kts | 205° |
| 2026-05-05 17:37 | 42.58862 | -70.89637 | 4395 ft | 207 kts | 205° |
| 2026-05-05 17:37 | 42.57504 | -70.90299 | 4130 ft | 208 kts | 204° |
| 2026-05-05 17:37 | 42.56140 | -70.90966 | 3851 ft | 208 kts | 205° |
| 2026-05-05 17:38 | 42.54777 | -70.91630 | 3576 ft | 207 kts | 203° |
| 2026-05-05 17:38 | 42.53417 | -70.92293 | 3304 ft | 207 kts | 203° |
| 2026-05-05 17:38 | 42.52058 | -70.92953 | 3034 ft | 208 kts | 203° |
| 2026-05-05 17:38 | 42.50703 | -70.93611 | 2755 ft | 206 kts | 202° |
| 2026-05-05 17:39 | 42.49364 | -70.94261 | 2488 ft | 203 kts | 202° |
| 2026-05-05 17:39 | 42.48055 | -70.94899 | 2229 ft | 202 kts | 201° |
| 2026-05-05 17:39 | 42.46757 | -70.95529 | 1973 ft | 193 kts | 201° |
| 2026-05-05 17:39 | 42.45558 | -70.96109 | 1743 ft | 172 kts | 201° |
| 2026-05-05 17:40 | 42.44485 | -70.96629 | 1513 ft | 155 kts | 201° |
| 2026-05-05 17:40 | 42.43547 | -70.97086 | 1330 ft | 133 kts | 203° |
| 2026-05-05 17:40 | 42.42727 | -70.97483 | 1145 ft | 122 kts | 203° |
| 2026-05-05 17:40 | 42.41949 | -70.97862 | 985 ft | 120 kts | 202° |
| 2026-05-05 17:41 | 42.41153 | -70.98249 | 830 ft | 121 kts | 200° |
| 2026-05-05 17:41 | 42.40358 | -70.98634 | 687 ft | 119 kts | 200° |
| 2026-05-05 17:41 | 42.39580 | -70.99009 | 483 ft | 120 kts | 200° |
| 2026-05-05 17:41 | 42.38801 | -70.99399 | 348 ft | 120 kts | 198° |
| 2026-05-05 17:42 | 42.38002 | -70.99777 | 205 ft | 121 kts | 200° |
| 2026-05-05 17:42 | 42.37224 | -71.00165 | 45 ft | 118 kts | 198° |
| 2026-05-05 17:42 | 42.36586 | -71.00468 | 26 ft | 61 kts | 200° |
| 2026-05-05 17:42 | 42.36403 | -71.00585 | 26 ft | 18 kts | 249° |
| 2026-05-05 17:43 | 42.36426 | -71.00750 | 30 ft | 20 kts | 291° |
| 2026-05-05 17:43 | 42.36483 | -71.00938 | 26 ft | 23 kts | 292° |
| 2026-05-05 17:43 | 42.36547 | -71.01147 | 29 ft | 20 kts | 294° |
| 2026-05-05 17:43 | 42.36488 | -71.01267 | 28 ft | 19 kts | 199° |
| 2026-05-05 17:44 | 42.36354 | -71.01325 | 26 ft | 21 kts | 199° |
| 2026-05-05 17:44 | 42.36207 | -71.01397 | 26 ft | 24 kts | 200° |
| 2026-05-05 17:44 | 42.36045 | -71.01474 | 27 ft | 26 kts | 199° |
| 2026-05-05 17:44 | 42.35897 | -71.01563 | 27 ft | 17 kts | 238° |
| 2026-05-05 17:45 | 42.35907 | -71.01704 | 28 ft | 17 kts | 278° |
| 2026-05-05 17:45 | 42.35940 | -71.01864 | 27 ft | 19 kts | 304° |
| 2026-05-05 17:45 | 42.36011 | -71.02029 | 29 ft | 22 kts | 300° |
| 2026-05-05 17:45 | 42.36092 | -71.02214 | 28 ft | 20 kts | 300° |
| 2026-05-05 17:46 | 42.36211 | -71.02266 | 27 ft | 19 kts | 19° |
| 2026-05-05 17:46 | 42.36276 | -71.02157 | 26 ft | 17 kts | 74° |
| 2026-05-05 17:46 | 42.36251 | -71.02096 | 26 ft | 4 kts | 174° |
| 2026-05-05 17:46 | 42.36226 | -71.02094 | 26 ft | 3 kts | 176° |
| 2026-05-05 17:47 | 42.36222 | -71.02094 | 26 ft | 0 kts | 176° |